createdAt,value
2022-09-25T00:03:01.410Z,4.19
2022-09-25T00:12:38.579Z,4.19
2022-09-25T00:22:15.719Z,4.19
2022-09-25T00:31:52.834Z,4.19
2022-09-25T00:41:30.082Z,4.19
2022-09-25T00:51:06.635Z,4.19
2022-09-25T01:00:43.493Z,4.19
2022-09-25T01:10:20.208Z,4.19
2022-09-25T01:19:57.281Z,4.19
2022-09-25T01:29:34.058Z,4.19
2022-09-25T01:39:10.865Z,4.19
2022-09-25T01:48:48.276Z,4.19
2022-09-25T01:58:25.669Z,4.19
2022-09-25T02:08:02.210Z,4.19
2022-09-25T02:27:15.297Z,4.19
2022-09-25T02:46:29.217Z,4.19
2022-09-25T02:56:05.964Z,4.19
2022-09-25T03:05:42.725Z,4.18
2022-09-25T03:15:19.372Z,4.18
2022-09-25T03:24:56.703Z,4.18
2022-09-25T03:44:10.601Z,4.18
2022-09-25T03:53:47.241Z,4.18
2022-09-25T04:03:24.413Z,4.18
2022-09-25T04:13:01.150Z,4.18
2022-09-25T04:22:38.041Z,4.18
2022-09-25T04:32:15.094Z,4.18
2022-09-25T04:41:52.252Z,4.18
2022-09-25T04:51:29.616Z,4.18
2022-09-25T05:01:06.309Z,4.18
2022-09-25T05:20:20.501Z,4.18
2022-09-25T05:29:57.908Z,4.18
2022-09-25T05:39:35.472Z,4.18
2022-09-25T05:49:12.846Z,4.18
2022-09-25T05:58:50.529Z,4.18
2022-09-25T06:08:28.444Z,4.18
2022-09-25T06:18:06.068Z,4.18
2022-09-25T06:37:21.963Z,4.18
2022-09-25T06:46:59.348Z,4.19
2022-09-25T06:56:37.223Z,4.18
2022-09-25T07:06:14.685Z,4.19
2022-09-25T07:15:51.681Z,4.18
2022-09-25T07:25:28.933Z,4.19
2022-09-25T07:35:05.911Z,4.19
2022-09-25T07:54:21.026Z,4.19
2022-09-25T08:13:37.211Z,4.19
2022-09-25T08:32:53.025Z,4.19
2022-09-25T08:52:10.584Z,4.19
2022-09-25T09:11:27.687Z,4.19
2022-09-25T09:21:05.642Z,4.19
2022-09-25T09:30:43.767Z,4.19
2022-09-25T09:50:02.264Z,4.2
2022-09-25T10:09:17.643Z,4.2
2022-09-25T10:19:10.045Z,4.25
2022-09-25T10:28:59.907Z,4.26
2022-09-25T10:38:44.641Z,4.23
2022-09-25T10:48:09.664Z,4.23
2022-09-25T11:07:16.694Z,4.22
2022-09-25T11:27:00.759Z,4.29
2022-09-25T11:36:48.296Z,4.3
2022-09-25T11:46:14.153Z,4.28
2022-09-25T11:55:40.389Z,4.23
2022-09-25T12:05:04.991Z,4.23
2022-09-25T12:14:40.321Z,4.23
2022-09-25T12:24:18.213Z,4.23
2022-09-25T12:43:39.750Z,4.29
2022-09-25T13:02:39.386Z,4.25
2022-09-25T13:12:13.924Z,4.25
2022-09-25T13:21:48.120Z,4.24
2022-09-25T13:31:34.475Z,4.25
2022-09-25T13:41:19.473Z,4.25
2022-09-25T13:50:53.775Z,4.25
2022-09-25T14:00:33.895Z,4.25
2022-09-25T14:10:11.023Z,4.24
2022-09-25T14:19:47.453Z,4.25
2022-09-25T14:29:31.689Z,4.28
2022-09-25T14:39:13.315Z,4.25
2022-09-25T14:48:39.070Z,4.23
2022-09-25T14:58:10.623Z,4.23
2022-09-25T15:26:55.319Z,4.23
2022-09-25T15:36:31.136Z,4.23
2022-09-25T15:46:07.906Z,4.23
2022-09-25T15:55:43.993Z,4.23
2022-09-25T16:05:20.252Z,4.23
2022-09-25T16:14:57.630Z,4.23
2022-09-25T16:34:09.015Z,4.22
2022-09-25T16:43:45.391Z,4.22
2022-09-25T16:53:22.156Z,4.22
2022-09-25T17:12:35.075Z,4.22
2022-09-25T17:31:49.238Z,4.22
2022-09-25T17:41:25.849Z,4.22
2022-09-25T17:51:02.475Z,4.22
2022-09-25T18:00:39.695Z,4.22
2022-09-25T18:10:16.734Z,4.21
2022-09-25T18:19:53.919Z,4.21
2022-09-25T18:29:30.345Z,4.21
2022-09-25T18:39:08.386Z,4.21
2022-09-25T18:48:44.545Z,4.21
2022-09-25T18:58:21.698Z,4.21
2022-09-25T19:07:59.099Z,4.21
2022-09-25T19:27:12.929Z,4.21
2022-09-25T19:46:26.582Z,4.21
2022-09-25T19:56:03.656Z,4.21
2022-09-25T20:05:40.689Z,4.21
2022-09-25T20:24:55.175Z,4.21
2022-09-25T20:44:09.284Z,4.21
2022-09-25T21:03:23.761Z,4.21
2022-09-25T21:22:37.441Z,4.21
2022-09-25T21:32:14.334Z,4.21
2022-09-25T21:41:51.402Z,4.21
2022-09-25T21:51:28.436Z,4.21
2022-09-25T22:01:05.325Z,4.21
2022-09-25T22:10:42.334Z,4.21
2022-09-25T22:20:19.955Z,4.21
2022-09-25T22:29:56.902Z,4.21
2022-09-25T22:39:33.924Z,4.21
2022-09-25T22:58:48.305Z,4.21
2022-09-25T23:08:25.424Z,4.2
2022-09-25T23:18:02.470Z,4.2
2022-09-25T23:27:39.657Z,4.2
2022-09-25T23:37:16.906Z,4.2
2022-09-25T23:46:54.013Z,4.2
2022-09-25T23:56:31.218Z,4.2
